Time;durP1;ratioP1;P1;durP2;ratioP2;P2;SDS_P1;SDS_P2;PMS_P1;PMS_P2;Temp;Humidity;BMP_temperature;BMP_pressure;BME280_temperature;BME280_humidity;BME280_pressure;Samples;Min_cycle;Max_cycle;Signal;HPM_P1;HPM_P2
2023/01/16 00:04:41;;;;;;;24.60;11.50;;;;;;;2.04;100.00;97730.42;221611;1272;22596;-73
2023/01/16 00:10:04;;;;;;;29.40;13.70;;;;;;;1.96;100.00;97731.70;220911;1280;22541;-76
2023/01/16 00:15:11;;;;;;;30.50;14.60;;;;;;;1.87;100.00;97725.92;220609;1276;22538;-75
2023/01/16 00:20:17;;;;;;;34.70;14.60;;;;;;;1.79;100.00;97719.91;220851;1281;22600;-75
2023/01/16 00:25:21;;;;;;;33.70;14.90;;;;;;;1.70;100.00;97710.46;220995;1283;24394;-74
2023/01/16 00:30:27;;;;;;;33.20;14.30;;;;;;;1.61;100.00;97706.98;220836;1283;22543;-74
2023/01/16 00:35:34;;;;;;;37.70;16.60;;;;;;;1.50;100.00;97695.89;220886;1279;22747;-73
2023/01/16 00:40:40;;;;;;;39.00;16.10;;;;;;;1.41;100.00;97705.86;221157;1259;22665;-74
2023/01/16 00:45:43;;;;;;;37.20;14.60;;;;;;;1.32;100.00;97710.39;221568;1275;24229;-74
2023/01/16 00:50:45;;;;;;;41.40;17.70;;;;;;;1.23;100.00;97711.60;221460;1275;22929;-74
2023/01/16 00:55:52;;;;;;;43.30;18.10;;;;;;;1.16;100.00;97709.75;221354;1279;22793;-74
2023/01/16 01:00:56;;;;;;;46.20;17.40;;;;;;;1.09;100.00;97713.19;221471;1279;22631;-75
2023/01/16 01:05:58;;;;;;;49.40;18.80;;;;;;;1.03;100.00;97711.98;221415;1272;25256;-74
2023/01/16 01:11:11;;;;;;;51.60;20.60;;;;;;;0.97;100.00;97711.67;221439;1275;22540;-73
2023/01/16 01:16:13;;;;;;;57.30;22.20;;;;;;;0.90;100.00;97702.02;221355;1279;22528;-74
2023/01/16 01:21:16;;;;;;;60.80;22.90;;;;;;;0.82;100.00;97703.75;221462;1278;25317;-75
2023/01/16 01:26:19;;;;;;;59.90;22.70;;;;;;;0.76;100.00;97700.95;221305;1275;24953;-74
2023/01/16 01:31:22;;;;;;;55.80;21.00;;;;;;;0.71;100.00;97694.47;221667;1275;22559;-74
2023/01/16 01:36:27;;;;;;;54.20;21.40;;;;;;;0.67;100.00;97693.17;221443;1278;22713;-74
2023/01/16 01:41:29;;;;;;;50.10;19.50;;;;;;;0.64;100.00;97689.52;221585;1277;25330;-74
2023/01/16 01:46:45;;;;;;;56.10;22.20;;;;;;;0.60;100.00;97689.58;221433;1279;22555;-74
2023/01/16 01:51:52;;;;;;;65.70;22.50;;;;;;;0.55;100.00;97688.16;221631;1275;25337;-75
2023/01/16 01:57:06;;;;;;;54.60;20.40;;;;;;;0.52;100.00;97677.55;221213;1275;23996;-73
2023/01/16 02:02:14;;;;;;;50.20;21.20;;;;;;;0.48;100.00;97671.96;221520;1272;24276;-74
2023/01/16 02:07:19;;;;;;;53.40;21.70;;;;;;;0.45;100.00;97669.27;221504;1276;22561;-75
2023/01/16 02:12:21;;;;;;;55.30;23.70;;;;;;;0.44;100.00;97666.09;221512;1273;26162;-74
2023/01/16 02:23:21;;;;;;;56.40;23.00;;;;;;;0.43;100.00;97659.70;221288;1275;24297;-74
2023/01/16 02:28:57;;;;;;;52.10;20.90;;;;;;;0.41;100.00;97656.05;221535;1275;22638;-74
2023/01/16 02:34:25;;;;;;;40.20;15.80;;;;;;;0.38;100.00;97663.07;221501;1279;25366;-74
2023/01/16 02:39:58;;;;;;;43.80;18.30;;;;;;;0.41;100.00;97658.41;221430;1276;24383;-74
2023/01/16 02:45:08;;;;;;;47.90;18.70;;;;;;;0.43;100.00;97660.17;221191;1279;23757;-73
2023/01/16 02:50:39;;;;;;;37.30;16.70;;;;;;;0.41;100.00;97654.14;221488;1278;22735;-74
2023/01/16 02:56:02;;;;;;;52.00;20.50;;;;;;;0.36;100.00;97645.52;221536;1279;22562;-74
2023/01/16 03:01:11;;;;;;;50.10;20.30;;;;;;;0.30;100.00;97639.77;221412;1279;24372;-74
2023/01/16 03:06:23;;;;;;;50.00;21.50;;;;;;;0.26;100.00;97638.05;221530;1279;25454;-74
2023/01/16 03:11:28;;;;;;;49.10;21.60;;;;;;;0.24;100.00;97632.43;221433;1279;22892;-73
2023/01/16 03:16:50;;;;;;;51.50;20.60;;;;;;;0.25;100.00;97626.90;221367;1279;24227;-74
2023/01/16 03:22:05;;;;;;;45.60;19.50;;;;;;;0.26;100.00;97620.34;221482;1272;22543;-75
2023/01/16 03:27:36;;;;;;;42.90;17.40;;;;;;;0.29;100.00;97617.61;221665;1275;25444;-74
2023/01/16 03:32:52;;;;;;;29.30;13.60;;;;;;;0.32;100.00;97623.14;221334;1279;25452;-74
2023/01/16 03:38:04;;;;;;;31.80;14.90;;;;;;;0.37;100.00;97615.38;221607;1278;22552;-74
2023/01/16 03:43:37;;;;;;;34.20;15.20;;;;;;;0.42;100.00;97611.94;221441;1279;22605;-75
2023/01/16 03:48:55;;;;;;;35.80;14.70;;;;;;;0.49;100.00;97610.10;221340;1272;22590;-73
2023/01/16 03:54:17;;;;;;;39.30;14.50;;;;;;;0.56;100.00;97603.79;221479;1275;23172;-74
2023/01/16 03:59:19;;;;;;;28.20;14.20;;;;;;;0.60;100.00;97598.85;221386;1264;22656;-73
2023/01/16 04:04:35;;;;;;;33.30;14.80;;;;;;;0.64;100.00;97596.94;221480;1278;22531;-74
2023/01/16 04:09:49;;;;;;;27.70;13.70;;;;;;;0.67;100.00;97583.42;221388;1279;22544;-74
2023/01/16 04:14:57;;;;;;;35.30;15.30;;;;;;;0.70;100.00;97561.60;221505;1275;25425;-74
2023/01/16 04:19:59;;;;;;;41.30;17.50;;;;;;;0.72;100.00;97548.50;221628;1277;22529;-74
2023/01/16 04:25:08;;;;;;;41.60;19.20;;;;;;;0.75;100.00;97545.04;221308;1279;24334;-75
2023/01/16 04:30:11;;;;;;;56.30;19.70;;;;;;;0.78;100.00;97536.35;221561;1279;24076;-74
2023/01/16 04:35:13;;;;;;;74.20;30.20;;;;;;;0.82;100.00;97520.88;221286;1275;22540;-74
2023/01/16 04:40:15;;;;;;;44.20;19.50;;;;;;;0.84;100.00;97514.15;221315;1279;22533;-74
2023/01/16 04:45:18;;;;;;;37.20;14.70;;;;;;;0.89;100.00;97509.63;221486;1273;22679;-74
2023/01/16 04:50:21;;;;;;;27.40;13.30;;;;;;;0.89;100.00;97515.11;221331;1279;22587;-73
2023/01/16 04:55:24;;;;;;;28.20;12.50;;;;;;;0.88;100.00;97510.04;221258;1279;22543;-75
2023/01/16 05:00:26;;;;;;;29.10;13.10;;;;;;;0.88;100.00;97504.29;221585;1279;24257;-74
2023/01/16 05:05:31;;;;;;;29.50;13.50;;;;;;;0.87;100.00;97503.23;221564;1279;22698;-74
2023/01/16 05:10:37;;;;;;;26.80;12.80;;;;;;;0.85;100.00;97505.98;221385;1275;22537;-74
2023/01/16 05:15:39;;;;;;;34.50;15.00;;;;;;;0.81;100.00;97507.42;221353;1278;22566;-74
2023/01/16 05:20:41;;;;;;;29.40;13.70;;;;;;;0.77;100.00;97497.70;221392;1279;22756;-73
2023/01/16 05:25:43;;;;;;;34.30;14.10;;;;;;;0.75;100.00;97499.80;221510;1272;24332;-75
2023/01/16 05:30:48;;;;;;;33.60;15.70;;;;;;;0.71;100.00;97491.81;221542;1279;25697;-74
2023/01/16 05:35:50;;;;;;;30.30;14.00;;;;;;;0.67;100.00;97485.89;221402;1279;22536;-73
2023/01/16 05:40:53;;;;;;;40.30;18.00;;;;;;;0.64;100.00;97483.35;221562;1279;25355;-74
2023/01/16 05:45:56;;;;;;;33.90;15.40;;;;;;;0.64;100.00;97479.34;221632;1279;22568;-75
2023/01/16 05:51:01;;;;;;;31.40;14.10;;;;;;;0.63;100.00;97472.27;221334;1278;22600;-73
2023/01/16 05:56:12;;;;;;;28.00;13.60;;;;;;;0.62;100.00;97463.09;221527;1278;22629;-73
2023/01/16 06:01:14;;;;;;;37.60;17.70;;;;;;;0.62;100.00;97451.55;221587;1278;24228;-74
2023/01/16 06:06:17;;;;;;;44.00;19.90;;;;;;;0.65;100.00;97452.27;221441;1278;22546;-75
2023/01/16 06:11:19;;;;;;;35.70;17.30;;;;;;;0.68;100.00;97449.41;221357;1279;22533;-74
2023/01/16 06:16:27;;;;;;;32.30;15.70;;;;;;;0.70;100.00;97448.00;221353;1279;24252;-74
2023/01/16 06:21:30;;;;;;;27.70;13.00;;;;;;;0.71;100.00;97442.27;221468;1278;23183;-74
2023/01/16 06:26:32;;;;;;;28.40;13.10;;;;;;;0.71;100.00;97442.41;221428;1279;22644;-74
2023/01/16 06:31:35;;;;;;;32.30;14.20;;;;;;;0.72;100.00;97427.71;221481;1278;22559;-73
2023/01/16 06:36:37;;;;;;;32.00;15.30;;;;;;;0.73;100.00;97418.96;221511;1277;22565;-74
2023/01/16 06:41:39;;;;;;;33.70;16.10;;;;;;;0.75;100.00;97413.55;221355;1279;25425;-73
2023/01/16 06:46:43;;;;;;;33.70;16.30;;;;;;;0.76;100.00;97410.77;221602;1279;22567;-74
2023/01/16 06:51:48;;;;;;;26.00;12.20;;;;;;;0.79;100.00;97406.19;221657;1279;22535;-74
2023/01/16 06:56:51;;;;;;;34.60;16.80;;;;;;;0.82;100.00;97409.88;221631;1269;24264;-74
2023/01/16 07:01:56;;;;;;;42.00;19.60;;;;;;;0.87;100.00;97411.38;222083;1262;22627;-73
2023/01/16 07:06:58;;;;;;;45.90;22.00;;;;;;;0.93;100.00;97412.40;222015;1260;25233;-72
2023/01/16 07:12:00;;;;;;;49.50;21.40;;;;;;;0.97;100.00;97409.52;221939;1260;22656;-72
2023/01/16 07:22:38;;;;;;;50.20;21.10;;;;;;;1.08;100.00;97412.61;222077;1272;138536;-72
2023/01/16 07:27:41;;;;;;;47.80;21.90;;;;;;;1.15;100.00;97404.81;222102;1269;138585;-73
2023/01/16 07:32:47;;;;;;;55.70;22.60;;;;;;;1.22;100.00;97396.86;222026;1260;138998;-76
2023/01/16 07:37:51;;;;;;;48.90;20.80;;;;;;;1.29;100.00;97394.02;221783;1272;138781;-73
2023/01/16 07:43:18;;;;;;;47.40;20.70;;;;;;;1.34;100.00;97387.64;221667;1270;138804;-74
2023/01/16 07:48:27;;;;;;;40.60;19.20;;;;;;;1.42;100.00;97378.11;221916;1271;138969;-76
2023/01/16 07:53:29;;;;;;;47.90;21.00;;;;;;;1.50;100.00;97362.69;221727;1269;22589;-72
2023/01/16 07:58:32;;;;;;;41.90;19.80;;;;;;;1.61;100.00;97354.98;221678;1275;139327;-73
2023/01/16 08:03:35;;;;;;;46.40;20.30;;;;;;;1.72;100.00;97340.30;221492;1269;539287;-74
2023/01/16 08:08:37;;;;;;;46.50;20.30;;;;;;;1.84;100.00;97337.02;221939;1270;139177;-73
2023/01/16 08:13:41;;;;;;;37.90;17.20;;;;;;;1.96;100.00;97337.99;222270;1266;139603;-74
2023/01/16 08:18:48;;;;;;;38.10;16.80;;;;;;;2.07;100.00;97332.48;221817;1273;139625;-75
2023/01/16 08:23:50;;;;;;;46.20;18.20;;;;;;;2.17;100.00;97326.80;221966;1260;24430;-72
2023/01/16 08:28:55;;;;;;;43.80;19.50;;;;;;;2.28;100.00;97326.02;221852;1265;139428;-74
2023/01/16 08:34:00;;;;;;;59.50;20.80;;;;;;;2.42;100.00;97319.05;221851;1272;138607;-73
2023/01/16 08:39:06;;;;;;;48.80;21.80;;;;;;;2.55;100.00;97315.45;221947;1273;138991;-76
2023/01/16 08:54:54;;;;;;;32.10;14.60;;;;;;;2.91;100.00;97305.48;221841;1273;138867;-75
2023/01/16 08:59:59;;;;;;;39.20;15.10;;;;;;;3.03;100.00;97293.08;221973;1269;22550;-75
2023/01/16 09:05:07;;;;;;;28.40;14.20;;;;;;;3.17;100.00;97280.81;222023;1257;140223;-75
2023/01/16 09:10:11;;;;;;;29.00;13.40;;;;;;;3.31;100.00;97267.09;221831;1273;138604;-74
2023/01/16 09:15:25;;;;;;;33.80;15.50;;;;;;;3.42;100.00;97262.29;222071;1275;138729;-76
2023/01/16 09:20:44;;;;;;;29.80;13.20;;;;;;;3.52;100.00;97249.91;221913;1276;138801;-75
2023/01/16 09:25:52;;;;;;;31.00;15.80;;;;;;;3.60;100.00;97243.36;221840;1267;138960;-76
2023/01/16 09:30:58;;;;;;;32.60;15.40;;;;;;;3.70;100.00;97230.73;221565;1261;138750;-75
2023/01/16 09:36:00;;;;;;;38.70;16.70;;;;;;;3.81;100.00;97223.51;221913;1273;22676;-76
2023/01/16 09:41:06;;;;;;;32.10;16.00;;;;;;;3.96;100.00;97206.02;221900;1268;139257;-78
2023/01/16 09:46:30;;;;;;;43.00;19.50;;;;;;;4.11;100.00;97183.26;221988;1272;139192;-76
2023/01/16 09:51:44;;;;;;;38.20;16.50;;;;;;;4.30;100.00;97171.76;221907;1275;138698;-76
2023/01/16 10:02:44;;;;;;;35.10;17.50;;;;;;;4.62;100.00;97153.74;222337;1259;139067;-77
2023/01/16 10:08:09;;;;;;;37.40;17.10;;;;;;;4.81;100.00;97141.09;221638;1272;138742;-74
2023/01/16 10:14:20;;;;;;;43.10;17.30;;;;;;;5.07;100.00;97128.17;143503;1282;20006846;-75
2023/01/16 10:19:40;;;;;;;31.80;15.30;;;;;;;5.32;100.00;97113.34;221439;1275;139151;-73
2023/01/16 10:25:08;;;;;;;29.60;14.80;;;;;;;5.54;100.00;97097.04;221365;1275;140626;-77
2023/01/16 10:30:23;;;;;;;32.20;14.90;;;;;;;5.75;99.84;97081.95;221615;1274;141358;-75
2023/01/16 10:36:00;;;;;;;18.90;9.80;;;;;;;5.93;100.00;97071.63;221416;1279;22700;-73
2023/01/16 10:49:25;;;;;;;27.50;11.70;;;;;;;6.01;98.95;97065.98;221299;1263;138269;-75
2023/01/16 10:52:00;;;;;;;25.10;11.20;;;;;;;6.06;98.40;97047.67;221094;1282;138555;-74
2023/01/16 10:57:14;;;;;;;27.20;11.00;;;;;;;6.08;97.73;97036.78;221537;1264;138837;-74
2023/01/16 11:02:40;;;;;;;21.30;9.10;;;;;;;6.10;97.39;97019.77;221733;1277;138744;-74
2023/01/16 11:07:45;;;;;;;22.30;10.80;;;;;;;6.08;95.98;97011.86;221099;1276;139145;-74
2023/01/16 11:18:35;;;;;;;17.20;9.40;;;;;;;6.38;96.81;96993.19;221269;1276;138030;-74
2023/01/16 11:23:42;;;;;;;22.20;10.80;;;;;;;6.54;96.15;96979.34;221290;1279;22580;-73
2023/01/16 11:28:48;;;;;;;23.10;9.70;;;;;;;6.57;95.70;96971.16;221309;1275;138579;-75
2023/01/16 11:34:00;;;;;;;17.70;8.70;;;;;;;6.43;94.96;96967.81;221166;1268;138641;-73
2023/01/16 11:39:06;;;;;;;12.40;5.80;;;;;;;6.26;94.57;96959.83;221416;1277;138716;-74
2023/01/16 11:49:52;;;;;;;21.30;11.30;;;;;;;5.98;94.23;96933.63;221151;1282;138699;-74
2023/01/16 11:55:06;;;;;;;16.70;8.60;;;;;;;5.92;94.38;96916.59;221467;1276;138649;-74
2023/01/16 12:00:24;;;;;;;16.70;8.30;;;;;;;5.90;94.40;96897.48;221281;1283;138401;-73
2023/01/16 12:06:11;;;;;;;14.60;6.20;;;;;;;5.82;94.15;96879.42;221374;1280;22543;-73
2023/01/16 12:14:17;;;;;;;7.60;4.50;;;;;;;5.73;93.65;96867.73;221122;1281;25313;-73
2023/01/16 12:17:42;;;;;;;13.10;5.80;;;;;;;5.65;93.26;96851.61;221731;1274;22669;-74
2023/01/16 12:22:57;;;;;;;9.20;4.90;;;;;;;5.57;92.80;96846.66;221487;1279;138794;-73
2023/01/16 12:28:38;;;;;;;18.50;7.10;;;;;;;5.52;92.58;96839.35;221536;1277;138129;-75
2023/01/16 12:34:17;;;;;;;18.00;8.30;;;;;;;5.49;92.71;96825.23;221558;1273;138763;-74
2023/01/16 12:39:42;;;;;;;11.80;7.20;;;;;;;5.49;92.61;96817.30;221483;1279;139493;-76
2023/01/16 12:45:27;;;;;;;22.80;10.50;;;;;;;5.49;92.41;96810.71;221591;1279;139364;-75
2023/01/16 12:50:37;;;;;;;14.00;7.70;;;;;;;5.49;92.00;96808.19;221501;1280;138787;-74
2023/01/16 12:56:00;;;;;;;20.80;10.40;;;;;;;5.48;92.23;96805.13;221586;1270;138466;-75
2023/01/16 13:01:26;;;;;;;19.30;10.70;;;;;;;5.41;92.01;96803.54;221520;1273;139219;-75
2023/01/16 13:06:56;;;;;;;11.00;6.10;;;;;;;5.30;92.03;96792.45;221664;1270;138627;-75
2023/01/16 13:17:51;;;;;;;10.90;6.90;;;;;;;5.22;91.67;96763.44;221640;1273;22530;-75
2023/01/16 13:23:16;;;;;;;12.10;7.90;;;;;;;5.17;91.90;96749.74;221582;1267;138247;-74
2023/01/16 13:29:08;;;;;;;15.30;9.20;;;;;;;5.15;92.09;96745.13;221432;1258;138739;-75
2023/01/16 13:34:15;;;;;;;11.90;7.30;;;;;;;5.19;92.45;96733.13;220569;1280;139485;-74
2023/01/16 13:39:55;;;;;;;13.20;6.20;;;;;;;5.27;92.47;96719.17;221370;1270;138610;-74
2023/01/16 13:50:31;;;;;;;16.50;10.30;;;;;;;5.33;92.63;96703.90;221460;1273;138675;-74
2023/01/16 13:55:40;;;;;;;19.00;10.50;;;;;;;5.25;92.73;96692.30;221543;1277;138622;-75
2023/01/16 14:00:44;;;;;;;17.10;9.20;;;;;;;5.16;93.02;96673.80;221576;1274;139497;-75
2023/01/16 14:06:16;;;;;;;11.40;6.30;;;;;;;5.10;93.02;96672.89;221789;1280;24877;-75
2023/01/16 14:11:34;;;;;;;12.40;7.40;;;;;;;5.04;92.95;96665.48;221407;1281;138436;-74
2023/01/16 14:17:01;;;;;;;12.40;6.70;;;;;;;4.97;93.61;96657.27;221783;1278;138362;-75
2023/01/16 14:27:43;;;;;;;11.20;6.40;;;;;;;4.87;93.63;96632.64;221431;1269;138316;-76
2023/01/16 14:32:55;;;;;;;11.80;6.90;;;;;;;4.79;93.52;96625.67;221805;1260;139531;-75
2023/01/16 14:38:15;;;;;;;12.20;7.40;;;;;;;4.72;93.60;96629.08;221847;1273;138599;-76
2023/01/16 15:00:17;;;;;;;10.60;6.20;;;;;;;4.31;94.00;96592.02;221752;1259;23385;-74
2023/01/16 15:05:49;;;;;;;16.20;7.40;;;;;;;4.21;94.16;96581.42;221398;1274;137931;-75
2023/01/16 15:10:55;;;;;;;15.70;8.30;;;;;;;4.08;94.18;96563.80;220949;1281;24267;-73
2023/01/16 15:16:04;;;;;;;13.40;6.90;;;;;;;3.94;94.45;96555.96;221152;1281;22591;-74
2023/01/16 15:26:57;;;;;;;13.90;7.30;;;;;;;3.88;95.05;96539.50;221253;1281;22544;-74
2023/01/16 15:32:04;;;;;;;11.50;5.90;;;;;;;3.82;94.75;96522.86;221062;1280;22621;-74
2023/01/16 15:37:23;;;;;;;11.60;6.10;;;;;;;3.76;95.11;96519.63;221108;1281;22487;-75
2023/01/16 15:48:43;;;;;;;14.70;8.30;;;;;;;3.71;95.53;96502.45;220466;1285;24341;-74
2023/01/16 15:53:53;;;;;;;14.00;8.40;;;;;;;3.66;95.59;96485.70;221031;1281;22582;-73
2023/01/16 15:58:56;;;;;;;18.00;9.70;;;;;;;3.65;95.75;96482.25;221372;1273;22537;-74
2023/01/16 16:04:01;;;;;;;18.50;9.60;;;;;;;3.59;95.86;96474.10;221349;1281;24158;-76
2023/01/16 16:09:17;;;;;;;22.10;10.90;;;;;;;3.53;96.13;96470.00;220921;1281;24235;-73
2023/01/16 16:19:46;;;;;;;20.70;10.00;;;;;;;3.41;96.13;96456.75;221416;1277;22580;-74
2023/01/16 16:24:49;;;;;;;29.50;14.30;;;;;;;3.30;96.21;96447.54;221166;1281;23708;-74
2023/01/16 16:29:55;;;;;;;21.40;12.30;;;;;;;3.16;96.48;96440.56;220988;1281;22636;-74
2023/01/16 16:34:57;;;;;;;22.60;12.20;;;;;;;3.06;96.85;96436.39;221166;1281;25434;-74
2023/01/16 16:40:15;;;;;;;28.00;13.10;;;;;;;3.01;97.04;96430.72;221152;1278;22682;-75
2023/01/16 16:45:24;;;;;;;32.10;17.00;;;;;;;3.07;97.68;96426.63;221159;1281;24497;-74
2023/01/16 16:50:35;;;;;;;23.40;13.30;;;;;;;3.16;97.78;96416.70;221253;1281;22573;-73
2023/01/16 16:55:39;;;;;;;31.80;17.70;;;;;;;3.22;97.74;96408.15;221641;1281;22571;-74
2023/01/16 17:00:47;;;;;;;31.30;16.00;;;;;;;3.24;97.65;96406.65;221263;1281;24228;-74
2023/01/16 17:05:53;;;;;;;27.00;14.30;;;;;;;3.27;97.90;96397.05;221280;1277;25419;-73
2023/01/16 17:10:57;;;;;;;32.40;17.00;;;;;;;3.18;97.72;96389.63;221285;1281;22556;-74
2023/01/16 17:15:59;;;;;;;21.00;12.90;;;;;;;3.08;97.79;96377.72;221208;1281;22546;-74
2023/01/16 17:21:03;;;;;;;29.50;16.00;;;;;;;2.96;97.75;96371.79;221233;1280;26453;-74
2023/01/16 17:26:09;;;;;;;32.90;15.30;;;;;;;2.88;97.98;96357.95;221143;1281;22563;-74
2023/01/16 17:31:25;;;;;;;20.20;11.60;;;;;;;2.81;98.18;96342.76;221191;1281;25357;-73
2023/01/16 17:36:32;;;;;;;18.30;10.00;;;;;;;2.78;98.42;96334.98;221028;1281;22701;-74
2023/01/16 17:46:44;;;;;;;18.30;10.00;;;;;;;2.81;98.99;96310.27;221096;1276;22566;-74
2023/01/16 17:51:52;;;;;;;21.20;11.60;;;;;;;2.84;99.10;96307.88;221229;1281;22562;-73
2023/01/16 17:56:58;;;;;;;25.90;13.10;;;;;;;2.86;99.39;96309.11;221101;1281;22680;-74
2023/01/16 18:02:00;;;;;;;24.60;13.60;;;;;;;2.93;99.54;96299.70;221192;1281;24413;-73
2023/01/16 18:07:06;;;;;;;20.00;11.20;;;;;;;3.00;99.71;96296.00;221238;1281;22541;-73
2023/01/16 18:17:33;;;;;;;21.70;12.30;;;;;;;3.08;99.57;96287.95;221064;1281;25249;-74
2023/01/16 18:22:36;;;;;;;28.80;15.50;;;;;;;3.13;99.87;96274.34;221165;1281;22672;-74
2023/01/16 18:27:42;;;;;;;27.70;13.40;;;;;;;3.16;99.84;96266.48;221253;1281;22570;-74
2023/01/16 18:32:45;;;;;;;35.50;16.50;;;;;;;3.15;99.68;96250.96;221141;1279;22550;-74
2023/01/16 19:01:55;;;;;;;31.40;15.60;;;;;;;3.14;99.69;96244.05;221268;1278;22541;-74
2023/01/16 19:04:37;;;;;;;22.80;12.00;;;;;;;3.21;99.97;96177.89;221169;1280;22536;-74
2023/01/16 19:09:42;;;;;;;23.00;12.80;;;;;;;3.25;100.00;96180.66;221266;1281;22596;-74
2023/01/16 19:14:49;;;;;;;29.70;16.20;;;;;;;3.31;100.00;96172.69;221507;1281;22660;-74
2023/01/16 19:19:54;;;;;;;26.50;14.10;;;;;;;3.31;99.99;96161.29;221173;1276;25413;-74
2023/01/16 19:24:57;;;;;;;30.00;16.10;;;;;;;3.28;99.97;96160.94;221282;1281;22569;-73
2023/01/16 19:29:59;;;;;;;35.10;17.50;;;;;;;3.23;99.84;96155.30;221050;1281;22601;-73
2023/01/16 19:35:02;;;;;;;31.40;16.80;;;;;;;3.19;99.96;96154.36;220975;1281;22543;-74
2023/01/16 19:40:10;;;;;;;28.70;15.60;;;;;;;3.20;100.00;96146.27;221012;1281;22562;-73
2023/01/16 19:50:34;;;;;;;26.60;14.20;;;;;;;3.37;100.00;96129.69;221178;1281;25381;-74
2023/01/16 19:55:37;;;;;;;33.60;17.40;;;;;;;3.42;100.00;96124.93;220946;1280;22552;-74
2023/01/16 20:00:39;;;;;;;28.20;15.30;;;;;;;3.45;99.99;96126.04;221280;1281;24293;-74
2023/01/16 20:06:04;;;;;;;31.60;18.30;;;;;;;3.48;100.00;96123.23;220927;1281;127156;-75
2023/01/16 20:11:09;;;;;;;33.60;18.40;;;;;;;3.50;99.95;96109.49;220958;1281;22533;-74
2023/01/16 20:16:12;;;;;;;34.30;19.30;;;;;;;3.49;99.84;96103.08;221121;1273;22536;-74
2023/01/16 20:21:17;;;;;;;37.10;19.60;;;;;;;3.47;99.87;96102.75;221285;1281;24253;-75
2023/01/16 20:26:20;;;;;;;34.90;18.90;;;;;;;3.47;99.76;96098.89;220970;1277;22883;-74
2023/01/16 20:31:25;;;;;;;37.30;19.60;;;;;;;3.46;99.70;96100.39;221277;1278;24256;-73
2023/01/16 20:36:28;;;;;;;45.00;22.40;;;;;;;3.48;99.84;96097.30;221185;1280;23791;-73
2023/01/16 20:46:53;;;;;;;30.80;16.60;;;;;;;3.52;99.72;96074.77;221083;1280;22536;-73
2023/01/16 20:51:56;;;;;;;42.80;21.60;;;;;;;3.50;99.68;96061.69;221221;1281;25492;-74
2023/01/16 20:57:00;;;;;;;34.50;19.80;;;;;;;3.53;99.72;96052.41;221219;1281;22603;-74
2023/01/16 21:02:06;;;;;;;39.60;19.30;;;;;;;3.53;99.77;96053.09;221194;1281;22536;-74
2023/01/16 21:07:12;;;;;;;35.70;19.80;;;;;;;3.50;99.52;96048.14;221153;1281;22588;-74
2023/01/16 21:22:58;;;;;;;33.80;17.70;;;;;;;3.54;99.50;96046.45;220961;1281;22536;-74
2023/01/16 21:28:00;;;;;;;35.90;19.60;;;;;;;3.51;99.40;96047.73;221240;1281;23978;-74
2023/01/16 21:33:04;;;;;;;31.20;16.10;;;;;;;3.53;99.71;96048.05;220862;1281;22533;-74
2023/01/16 21:38:07;;;;;;;40.20;20.10;;;;;;;3.56;99.69;96042.98;221334;1281;25304;-73
2023/01/16 21:48:29;;;;;;;56.00;24.80;;;;;;;3.58;99.77;96043.07;220886;1280;22559;-74
2023/01/16 21:53:32;;;;;;;63.30;27.00;;;;;;;3.59;99.83;96048.88;221114;1280;22563;-73
2023/01/16 21:58:34;;;;;;;63.40;26.60;;;;;;;3.61;99.83;96040.78;220977;1281;22592;-76
2023/01/16 22:03:36;;;;;;;57.30;26.30;;;;;;;3.63;99.76;96029.34;220990;1278;22668;-74
2023/01/16 22:08:40;;;;;;;47.80;20.60;;;;;;;3.65;99.81;96029.52;221100;1280;22794;-74
2023/01/16 22:19:23;;;;;;;51.30;23.50;;;;;;;3.67;99.88;96024.30;220944;1281;24290;-74
2023/01/16 22:24:26;;;;;;;58.70;24.20;;;;;;;3.68;99.76;96015.33;221155;1281;22649;-74
2023/01/16 22:29:29;;;;;;;47.20;22.50;;;;;;;3.67;99.94;96010.02;221053;1277;22576;-74
2023/01/16 22:34:31;;;;;;;52.80;22.90;;;;;;;3.66;99.81;96007.80;221248;1281;22589;-74
2023/01/16 22:39:33;;;;;;;51.10;23.60;;;;;;;3.65;99.85;95998.80;221124;1281;24386;-72
2023/01/16 22:49:57;;;;;;;63.40;26.90;;;;;;;3.65;99.99;95997.67;221116;1281;22544;-73
2023/01/16 22:55:03;;;;;;;67.90;29.30;;;;;;;3.64;99.94;95987.80;221371;1281;24335;-74
2023/01/16 23:00:10;;;;;;;67.30;27.40;;;;;;;3.60;99.79;95979.98;221101;1281;22536;-75
2023/01/16 23:05:14;;;;;;;61.50;26.50;;;;;;;3.56;99.76;95971.67;221140;1275;24291;-73
2023/01/16 23:10:17;;;;;;;70.30;29.50;;;;;;;3.56;99.95;95971.82;221071;1281;22556;-73
2023/01/16 23:15:20;;;;;;;67.70;27.80;;;;;;;3.57;99.89;95971.33;221115;1279;22547;-73
2023/01/16 23:20:22;;;;;;;60.00;25.60;;;;;;;3.57;99.93;95968.61;221012;1281;22543;-73
2023/01/16 23:25:24;;;;;;;59.00;24.90;;;;;;;3.57;99.97;95965.72;221243;1266;22549;-74
2023/01/16 23:30:26;;;;;;;56.70;24.10;;;;;;;3.58;99.92;95967.58;221323;1273;22751;-74
2023/01/16 23:35:29;;;;;;;53.20;24.10;;;;;;;3.58;99.93;95955.13;221023;1281;22598;-74
2023/01/16 23:40:31;;;;;;;56.90;24.10;;;;;;;3.57;99.91;95942.58;221017;1281;24375;-73
2023/01/16 23:45:34;;;;;;;55.80;24.00;;;;;;;3.59;99.94;95945.90;220987;1281;24111;-74
2023/01/16 23:50:44;;;;;;;;;;;;;;;3.59;99.88;95945.39;220949;1281;24295;-74
2023/01/16 23:55:53;;;;;;;43.90;19.30;;;;;;;3.57;99.97;95939.04;220994;1278;22579;-74
